createdAt,value
2022-12-18T00:01:23.490Z,7.13
2022-12-18T00:03:51.744Z,7.38
2022-12-18T00:06:19.473Z,7.55
2022-12-18T00:08:47.733Z,7.95
2022-12-18T00:11:18.238Z,7.57
2022-12-18T00:13:45.432Z,7.85
2022-12-18T00:16:14.735Z,7.20
2022-12-18T00:18:42.659Z,7.20
2022-12-18T00:21:12.214Z,7.15
2022-12-18T00:23:41.371Z,7.13
2022-12-18T00:26:19.067Z,6.88
2022-12-18T00:28:47.133Z,6.38
2022-12-18T00:31:20.211Z,7.50
2022-12-18T00:33:47.611Z,6.93
2022-12-18T00:36:28.915Z,6.50
2022-12-18T00:38:57.386Z,6.78
2022-12-18T00:41:43.664Z,7.28
2022-12-18T00:44:13.072Z,6.75
2022-12-18T00:46:40.559Z,7.32
2022-12-18T00:49:08.096Z,6.57
2022-12-18T00:51:35.283Z,7.47
2022-12-18T00:54:02.433Z,6.78
2022-12-18T00:56:29.570Z,6.85
2022-12-18T00:58:56.633Z,6.68
2022-12-18T01:01:23.903Z,6.93
2022-12-18T01:03:51.002Z,6.03
2022-12-18T01:06:18.598Z,7.30
2022-12-18T01:08:45.857Z,7.40
2022-12-18T01:11:15.530Z,7.28
2022-12-18T01:13:42.785Z,6.60
2022-12-18T01:16:11.973Z,7.07
2022-12-18T01:18:39.057Z,7.47
2022-12-18T01:21:14.683Z,7.10
2022-12-18T01:23:42.238Z,7.30
2022-12-18T01:26:17.221Z,7.10
2022-12-18T01:28:45.293Z,6.60
2022-12-18T01:31:16.288Z,6.85
2022-12-18T01:33:43.691Z,6.55
2022-12-18T01:36:33.454Z,6.78
2022-12-18T01:39:12.361Z,6.60
2022-12-18T01:41:57.997Z,6.15
2022-12-18T01:44:58.167Z,6.32
2022-12-18T01:47:42.791Z,6.57
2022-12-18T01:50:20.714Z,6.60
2022-12-18T01:52:55.097Z,6.88
2022-12-18T01:55:30.516Z,5.68
2022-12-18T01:58:00.464Z,6.43
2022-12-18T02:00:28.878Z,6.45
2022-12-18T02:02:56.107Z,6.43
2022-12-18T02:05:44.263Z,6.35
2022-12-18T02:08:44.908Z,6.47
2022-12-18T02:11:35.228Z,6.47
2022-12-18T02:14:19.438Z,6.57
2022-12-18T02:16:59.529Z,6.53
2022-12-18T02:19:39.196Z,6.75
2022-12-18T02:22:27.681Z,5.60
2022-12-18T02:25:13.288Z,6.20
2022-12-18T02:27:42.045Z,5.85
2022-12-18T02:30:11.067Z,7.18
2022-12-18T02:32:49.281Z,5.78
2022-12-18T02:35:25.059Z,5.97
2022-12-18T02:37:52.877Z,5.82
2022-12-18T02:40:23.007Z,6.03
2022-12-18T02:42:50.088Z,6.10
2022-12-18T02:45:17.260Z,6.40
2022-12-18T02:47:47.685Z,6.40
2022-12-18T02:50:27.098Z,5.63
2022-12-18T02:53:12.602Z,6.13
2022-12-18T02:55:45.880Z,5.25
2022-12-18T02:58:50.808Z,4.90
2022-12-18T03:04:02.466Z,5.28
2022-12-18T03:06:38.424Z,5.25
2022-12-18T03:09:20.631Z,5.68
2022-12-18T03:12:14.050Z,6.30
2022-12-18T03:14:43.176Z,6.10
2022-12-18T03:17:14.794Z,6.22
2022-12-18T03:19:43.370Z,5.90
2022-12-18T03:22:11.743Z,5.45
2022-12-18T03:24:41.687Z,5.60
2022-12-18T03:27:13.662Z,5.82
2022-12-18T03:29:46.905Z,5.60
2022-12-18T03:32:28.716Z,6.20
2022-12-18T03:34:59.009Z,5.43
2022-12-18T03:37:26.136Z,5.47
2022-12-18T03:39:53.233Z,5.22
2022-12-18T03:42:49.465Z,6.05
2022-12-18T03:45:37.252Z,5.82
2022-12-18T03:48:30.873Z,6.05
2022-12-18T03:51:02.797Z,5.13
2022-12-18T03:53:51.633Z,5.65
2022-12-18T03:56:22.353Z,6.75
2022-12-18T03:58:51.598Z,5.43
2022-12-18T04:01:21.176Z,5.13
2022-12-18T04:03:50.644Z,5.20
2022-12-18T04:06:18.686Z,5.38
2022-12-18T04:08:46.531Z,5.65
2022-12-18T04:11:13.658Z,5.90
2022-12-18T04:13:41.217Z,5.47
2022-12-18T04:16:10.692Z,5.63
2022-12-18T04:18:38.068Z,5.88
2022-12-18T04:21:05.240Z,5.55
2022-12-18T04:23:32.374Z,5.47
2022-12-18T04:26:00.844Z,5.35
2022-12-18T04:28:27.868Z,5.60
2022-12-18T04:30:54.981Z,5.70
2022-12-18T04:33:22.069Z,5.30
2022-12-18T04:35:49.166Z,6.35
2022-12-18T04:38:16.688Z,6.20
2022-12-18T04:40:44.411Z,6.47
2022-12-18T04:43:11.498Z,6.50
2022-12-18T04:45:38.860Z,6.25
2022-12-18T04:48:07.846Z,6.15
2022-12-18T04:50:34.853Z,6.03
2022-12-18T04:53:02.026Z,5.57
2022-12-18T04:55:29.254Z,5.93
2022-12-18T04:57:56.396Z,6.60
2022-12-18T05:00:24.180Z,7.40
2022-12-18T05:02:51.351Z,6.70
2022-12-18T05:05:18.589Z,5.90
2022-12-18T05:07:45.609Z,6.65
2022-12-18T05:10:13.193Z,6.82
2022-12-18T05:12:59.424Z,6.90
2022-12-18T05:15:32.865Z,6.43
2022-12-18T05:18:00.960Z,6.13
2022-12-18T05:20:28.867Z,6.75
2022-12-18T05:22:56.719Z,6.40
2022-12-18T05:25:24.907Z,6.50
2022-12-18T05:27:52.041Z,6.28
2022-12-18T05:30:19.085Z,5.85
2022-12-18T05:32:46.182Z,6.28
2022-12-18T05:35:13.275Z,6.05
2022-12-18T05:37:43.309Z,6.00
2022-12-18T05:40:11.706Z,6.80
2022-12-18T05:42:39.048Z,7.68
2022-12-18T05:45:07.887Z,6.85
2022-12-18T05:47:35.000Z,5.90
2022-12-18T05:50:02.062Z,6.93
2022-12-18T05:52:29.111Z,7.07
2022-12-18T05:54:56.098Z,6.55
2022-12-18T05:57:23.151Z,6.95
2022-12-18T05:59:50.199Z,7.13
2022-12-18T06:02:17.744Z,6.88
2022-12-18T06:04:44.881Z,6.75
2022-12-18T06:07:11.965Z,6.93
2022-12-18T06:09:41.034Z,6.72
2022-12-18T06:12:08.204Z,6.93
2022-12-18T06:14:35.293Z,7.35
2022-12-18T06:17:02.495Z,7.22
2022-12-18T06:19:29.540Z,6.70
2022-12-18T06:21:58.899Z,6.65
2022-12-18T06:24:26.021Z,6.72
2022-12-18T06:26:53.155Z,7.55
2022-12-18T06:29:20.220Z,7.20
2022-12-18T06:31:47.278Z,6.90
2022-12-18T06:34:14.395Z,6.75
2022-12-18T06:36:42.463Z,6.57
2022-12-18T06:39:09.473Z,7.93
2022-12-18T06:41:37.541Z,7.28
2022-12-18T06:44:05.033Z,7.35
2022-12-18T06:46:33.325Z,7.22
2022-12-18T06:49:00.381Z,7.32
2022-12-18T06:51:28.500Z,6.43
2022-12-18T06:53:55.626Z,6.65
2022-12-18T06:56:23.214Z,7.72
2022-12-18T06:58:51.395Z,7.78
2022-12-18T07:01:18.588Z,7.18
2022-12-18T07:03:46.344Z,7.47
2022-12-18T07:06:21.200Z,6.85
2022-12-18T07:08:49.528Z,7.82
2022-12-18T07:11:17.139Z,7.35
2022-12-18T07:13:44.985Z,6.82
2022-12-18T07:16:24.221Z,6.85
2022-12-18T07:18:52.973Z,6.05
2022-12-18T07:21:21.461Z,6.70
2022-12-18T07:23:49.465Z,6.72
2022-12-18T07:26:18.951Z,6.50
2022-12-18T07:28:46.066Z,6.70
2022-12-18T07:31:18.966Z,6.68
2022-12-18T07:33:47.526Z,7.85
2022-12-18T07:36:15.284Z,8.02
2022-12-18T07:38:42.910Z,7.10
2022-12-18T07:41:12.547Z,6.72
2022-12-18T07:43:41.064Z,7.85
2022-12-18T07:46:10.605Z,9.10
2022-12-18T07:48:40.691Z,8.35
2022-12-18T07:51:08.589Z,8.00
2022-12-18T07:53:37.171Z,7.55
2022-12-18T07:58:55.084Z,6.60
2022-12-18T08:01:22.263Z,7.45
2022-12-18T08:03:50.201Z,6.60
2022-12-18T08:06:24.320Z,7.32
2022-12-18T08:08:56.665Z,6.78
2022-12-18T08:11:25.318Z,7.75
2022-12-18T08:13:52.527Z,7.05
2022-12-18T08:16:20.637Z,6.95
2022-12-18T08:18:48.121Z,7.80
2022-12-18T08:21:24.206Z,7.95
2022-12-18T08:23:52.813Z,6.25
2022-12-18T08:26:21.034Z,7.88
2022-12-18T08:28:49.017Z,7.05
2022-12-18T08:31:16.855Z,6.90
2022-12-18T08:33:44.176Z,7.68
2022-12-18T08:36:11.999Z,7.75
2022-12-18T08:38:39.197Z,7.22
2022-12-18T08:41:09.098Z,6.22
2022-12-18T08:43:54.960Z,7.28
2022-12-18T08:46:23.745Z,6.68
2022-12-18T08:48:53.197Z,7.07
2022-12-18T08:51:21.311Z,7.60
2022-12-18T08:53:48.798Z,6.75
2022-12-18T08:56:16.664Z,7.18
2022-12-18T08:58:43.987Z,7.20
2022-12-18T09:01:13.380Z,8.23
2022-12-18T09:03:41.428Z,6.88
2022-12-18T09:06:09.488Z,6.88
2022-12-18T09:08:38.105Z,7.90
2022-12-18T09:11:05.715Z,7.53
2022-12-18T09:13:32.781Z,7.75
2022-12-18T09:16:04.936Z,7.15
2022-12-18T09:18:31.995Z,7.20
2022-12-18T09:20:59.063Z,8.18
2022-12-18T09:23:26.065Z,6.97
2022-12-18T09:25:53.181Z,7.78
2022-12-18T09:28:20.395Z,7.78
2022-12-18T09:30:50.043Z,6.93
2022-12-18T09:33:18.076Z,7.20
2022-12-18T09:35:46.240Z,7.10
2022-12-18T09:38:16.248Z,7.10
2022-12-18T09:40:53.853Z,7.47
2022-12-18T09:43:42.473Z,6.28
2022-12-18T09:46:17.201Z,6.90
2022-12-18T09:48:48.953Z,6.53
2022-12-18T09:51:32.173Z,7.25
2022-12-18T09:54:05.895Z,6.40
2022-12-18T09:56:38.761Z,6.20
2022-12-18T09:59:06.739Z,6.60
2022-12-18T10:01:43.133Z,7.05
2022-12-18T10:04:11.568Z,6.88
2022-12-18T10:07:04.420Z,6.95
2022-12-18T10:09:54.905Z,7.53
2022-12-18T10:12:51.305Z,6.55
2022-12-18T10:15:31.692Z,6.97
2022-12-18T10:18:22.592Z,6.90
2022-12-18T10:20:56.598Z,6.45
2022-12-18T10:23:46.413Z,6.65
2022-12-18T10:26:15.195Z,7.13
2022-12-18T10:28:44.855Z,6.35
2022-12-18T10:31:14.995Z,6.00
2022-12-18T10:33:42.457Z,7.32
2022-12-18T10:36:09.751Z,6.38
2022-12-18T10:38:37.102Z,6.40
2022-12-18T10:41:06.942Z,6.85
2022-12-18T10:43:36.613Z,6.85
2022-12-18T10:46:09.725Z,7.28
2022-12-18T10:48:49.275Z,6.60
2022-12-18T10:51:26.704Z,6.47
2022-12-18T10:54:04.677Z,6.68
2022-12-18T10:56:36.855Z,7.00
2022-12-18T10:59:09.730Z,6.75
2022-12-18T11:01:57.752Z,8.02
2022-12-18T11:04:32.813Z,7.43
2022-12-18T11:07:05.243Z,6.85
2022-12-18T11:09:36.946Z,7.35
2022-12-18T11:12:15.581Z,7.15
2022-12-18T11:14:47.420Z,7.05
2022-12-18T11:17:31.571Z,7.05
2022-12-18T11:20:01.073Z,7.35
2022-12-18T11:22:30.502Z,7.63
2022-12-18T11:28:02.038Z,7.32
2022-12-18T11:30:37.339Z,7.80
2022-12-18T11:33:11.322Z,7.45
2022-12-18T11:35:52.357Z,7.55
2022-12-18T11:38:42.012Z,7.05
2022-12-18T11:41:18.341Z,7.45
2022-12-18T11:44:05.221Z,7.95
2022-12-18T11:46:39.110Z,8.15
2022-12-18T11:49:13.640Z,8.75
2022-12-18T11:51:52.845Z,7.32
2022-12-18T11:54:21.549Z,8.82
2022-12-18T11:57:06.744Z,8.82
2022-12-18T11:59:41.644Z,7.63
2022-12-18T12:02:27.507Z,8.88
2022-12-18T12:05:32.552Z,8.48
2022-12-18T12:08:35.233Z,8.52
2022-12-18T12:11:35.406Z,8.50
2022-12-18T12:14:15.816Z,9.15
2022-12-18T12:16:58.598Z,9.25
2022-12-18T12:19:47.231Z,9.20
2022-12-18T12:22:39.858Z,9.70
2022-12-18T12:25:34.546Z,10.18
2022-12-18T12:28:19.098Z,9.07
2022-12-18T12:33:34.979Z,9.43
2022-12-18T12:36:22.653Z,9.68
2022-12-18T12:38:56.528Z,9.15
2022-12-18T12:41:46.703Z,9.38
2022-12-18T12:44:24.795Z,10.05
2022-12-18T12:46:56.519Z,8.95
2022-12-18T12:49:27.746Z,10.07
2022-12-18T12:52:08.410Z,9.73
2022-12-18T12:54:38.532Z,10.35
2022-12-18T12:57:19.315Z,10.23
2022-12-18T13:00:27.028Z,10.93
2022-12-18T13:03:40.957Z,10.65
2022-12-18T13:06:24.829Z,10.68
2022-12-18T13:09:01.438Z,10.45
2022-12-18T13:11:59.494Z,10.35
2022-12-18T13:14:31.829Z,10.07
2022-12-18T13:17:26.124Z,10.50
2022-12-18T13:20:05.329Z,10.73
2022-12-18T13:22:48.484Z,11.45
2022-12-18T13:25:39.432Z,10.65
2022-12-18T13:28:17.978Z,10.80
2022-12-18T13:30:48.151Z,11.38
2022-12-18T13:33:18.839Z,11.15
2022-12-18T13:35:49.186Z,11.48
2022-12-18T13:38:25.494Z,11.68
2022-12-18T13:40:52.769Z,10.73
2022-12-18T13:43:23.063Z,11.35
2022-12-18T13:46:42.129Z,10.88
2022-12-18T13:49:15.441Z,10.98
2022-12-18T13:51:48.885Z,10.15
2022-12-18T13:54:36.783Z,11.82
2022-12-18T13:57:07.654Z,11.70
2022-12-18T13:59:39.854Z,11.25
2022-12-18T14:02:24.455Z,12.18
2022-12-18T14:04:54.514Z,11.80
2022-12-18T14:07:31.373Z,11.85
2022-12-18T14:10:45.468Z,12.02
2022-12-18T14:13:11.789Z,11.02
2022-12-18T14:15:49.050Z,11.02
2022-12-18T14:18:35.260Z,12.55
2022-12-18T14:21:04.988Z,11.23
2022-12-18T14:23:42.693Z,12.25
2022-12-18T14:26:31.205Z,12.68
2022-12-18T14:29:02.514Z,11.20
2022-12-18T14:31:31.647Z,12.48
2022-12-18T14:33:59.237Z,11.25
2022-12-18T14:36:28.762Z,11.18
2022-12-18T14:38:57.921Z,12.18
2022-12-18T14:41:26.203Z,12.07
2022-12-18T14:43:55.661Z,11.43
2022-12-18T14:46:31.731Z,12.82
2022-12-18T14:48:59.619Z,12.25
2022-12-18T14:51:29.120Z,11.75
2022-12-18T14:54:01.505Z,12.18
2022-12-18T14:56:44.559Z,12.82
2022-12-18T14:59:23.841Z,11.93
2022-12-18T15:02:12.066Z,12.43
2022-12-18T15:04:44.466Z,12.75
2022-12-18T15:07:15.285Z,12.50
2022-12-18T15:09:45.989Z,11.77
2022-12-18T15:12:29.888Z,12.55
2022-12-18T15:14:57.111Z,13.35
2022-12-18T15:17:26.142Z,12.73
2022-12-18T15:20:05.167Z,11.90
2022-12-18T15:22:36.712Z,12.93
2022-12-18T15:25:22.885Z,11.70
2022-12-18T15:27:53.248Z,12.70
2022-12-18T15:30:23.530Z,12.45
2022-12-18T15:32:51.756Z,11.80
2022-12-18T15:35:22.755Z,12.38
2022-12-18T15:37:51.549Z,12.38
2022-12-18T15:40:21.324Z,13.80
2022-12-18T15:43:08.064Z,12.13
2022-12-18T15:45:35.393Z,13.02
2022-12-18T15:48:02.739Z,12.50
2022-12-18T15:50:30.075Z,11.85
2022-12-18T15:52:58.231Z,14.15
2022-12-18T15:55:44.312Z,13.68
2022-12-18T15:58:12.883Z,12.40
2022-12-18T16:00:41.960Z,12.90
2022-12-18T16:03:11.029Z,13.23
2022-12-18T16:05:38.452Z,14.27
2022-12-18T16:08:05.981Z,12.75
2022-12-18T16:10:33.268Z,14.75
2022-12-18T16:13:00.480Z,14.07
2022-12-18T16:15:27.736Z,15.02
2022-12-18T16:17:55.002Z,13.70
2022-12-18T16:20:23.944Z,14.45
2022-12-18T16:22:51.205Z,13.40
2022-12-18T16:25:27.138Z,16.20
2022-12-18T16:27:56.454Z,14.32
2022-12-18T16:30:32.018Z,13.50
2022-12-18T16:33:07.572Z,14.98
2022-12-18T16:35:35.488Z,14.02
2022-12-18T16:38:02.541Z,13.98
2022-12-18T16:40:32.778Z,14.45
2022-12-18T16:43:00.178Z,15.30
2022-12-18T16:45:27.493Z,15.15
2022-12-18T16:47:54.679Z,14.13
2022-12-18T16:50:21.837Z,14.77
2022-12-18T16:52:49.057Z,14.85
2022-12-18T16:55:16.432Z,16.10
2022-12-18T16:57:43.700Z,14.43
2022-12-18T17:00:11.789Z,15.00
2022-12-18T17:02:39.842Z,14.90
2022-12-18T17:05:07.575Z,15.50
2022-12-18T17:07:35.681Z,15.32
2022-12-18T17:10:04.294Z,16.17
2022-12-18T17:12:31.761Z,15.93
2022-12-18T17:15:00.026Z,15.38
2022-12-18T17:17:27.334Z,16.08
2022-12-18T17:19:54.758Z,16.23
2022-12-18T17:22:23.562Z,13.98
2022-12-18T17:24:50.884Z,15.73
2022-12-18T17:27:18.110Z,16.13
2022-12-18T17:29:48.284Z,14.90
2022-12-18T17:32:17.602Z,15.50
2022-12-18T17:34:44.846Z,16.23
2022-12-18T17:37:12.193Z,15.50
2022-12-18T17:39:40.019Z,16.38
2022-12-18T17:42:07.700Z,15.57
2022-12-18T17:44:37.126Z,15.82
2022-12-18T17:47:06.298Z,16.85
2022-12-18T17:49:33.580Z,16.65
2022-12-18T17:52:00.878Z,16.25
2022-12-18T17:54:28.137Z,15.32
2022-12-18T17:56:55.446Z,15.88
2022-12-18T17:59:22.875Z,15.98
2022-12-18T18:01:51.381Z,15.57
2022-12-18T18:04:19.499Z,17.13
2022-12-18T18:06:46.823Z,15.25
2022-12-18T18:09:16.023Z,15.13
2022-12-18T18:12:05.183Z,14.70
2022-12-18T18:14:33.585Z,14.73
2022-12-18T18:17:04.924Z,16.90
2022-12-18T18:19:33.705Z,14.68
2022-12-18T18:22:01.762Z,16.38
2022-12-18T18:24:30.381Z,16.77
2022-12-18T18:26:59.788Z,15.45
2022-12-18T18:29:28.959Z,14.93
2022-12-18T18:31:56.837Z,16.05
2022-12-18T18:34:28.192Z,15.50
2022-12-18T18:36:55.408Z,15.07
2022-12-18T18:39:23.226Z,16.30
2022-12-18T18:41:50.831Z,15.52
2022-12-18T18:44:24.418Z,15.35
2022-12-18T18:46:58.387Z,15.25
2022-12-18T18:49:28.086Z,15.90
2022-12-18T18:51:57.061Z,15.85
2022-12-18T18:54:26.360Z,15.73
2022-12-18T18:57:19.310Z,15.13
2022-12-18T18:59:40.769Z,15.57
2022-12-18T19:02:12.406Z,15.85
2022-12-18T19:04:46.145Z,15.45
2022-12-18T19:07:26.157Z,14.60
2022-12-18T19:09:57.345Z,15.73
2022-12-18T19:12:45.410Z,15.95
2022-12-18T19:15:12.688Z,16.05
2022-12-18T19:17:42.443Z,16.70
2022-12-18T19:20:13.985Z,16.42
2022-12-18T19:22:41.187Z,16.17
2022-12-18T19:25:10.205Z,15.82
2022-12-18T19:27:40.278Z,14.63
2022-12-18T19:30:08.839Z,16.25
2022-12-18T19:32:36.543Z,16.15
2022-12-18T19:35:04.209Z,14.98
2022-12-18T19:37:31.691Z,15.68
2022-12-18T19:39:59.245Z,16.25
2022-12-18T19:42:35.027Z,16.00
2022-12-18T19:45:02.800Z,16.80
2022-12-18T19:47:31.056Z,15.82
2022-12-18T19:49:58.517Z,16.35
2022-12-18T19:52:28.406Z,16.20
2022-12-18T19:54:55.824Z,14.80
2022-12-18T19:57:23.358Z,15.88
2022-12-18T19:59:50.632Z,17.17
2022-12-18T20:02:19.860Z,16.00
2022-12-18T20:04:50.413Z,16.70
2022-12-18T20:07:18.039Z,16.33
2022-12-18T20:09:45.604Z,15.95
2022-12-18T20:12:14.276Z,15.80
2022-12-18T20:14:41.638Z,14.75
2022-12-18T20:17:08.924Z,16.45
2022-12-18T20:19:36.716Z,16.25
2022-12-18T20:22:04.444Z,16.75
2022-12-18T20:24:31.677Z,16.45
2022-12-18T20:26:59.023Z,16.02
2022-12-18T20:29:26.591Z,14.77
2022-12-18T20:31:54.209Z,17.25
2022-12-18T20:34:21.541Z,14.90
2022-12-18T20:36:49.101Z,15.15
2022-12-18T20:39:18.089Z,16.13
2022-12-18T20:41:46.596Z,16.15
2022-12-18T20:44:22.726Z,15.52
2022-12-18T20:47:07.440Z,15.25
2022-12-18T20:49:36.115Z,15.55
2022-12-18T20:52:06.247Z,16.98
2022-12-18T20:54:33.653Z,15.68
2022-12-18T20:57:00.852Z,15.70
2022-12-18T20:59:29.230Z,15.52
2022-12-18T21:01:57.988Z,15.18
2022-12-18T21:04:29.130Z,15.82
2022-12-18T21:07:02.359Z,15.07
2022-12-18T21:09:37.468Z,14.70
2022-12-18T21:12:25.344Z,16.50
2022-12-18T21:14:52.465Z,15.27
2022-12-18T21:17:19.650Z,15.52
2022-12-18T21:19:46.914Z,15.63
2022-12-18T21:22:15.330Z,15.10
2022-12-18T21:24:42.700Z,15.82
2022-12-18T21:27:10.594Z,16.55
2022-12-18T21:29:41.394Z,16.10
2022-12-18T21:32:10.395Z,15.45
2022-12-18T21:34:37.967Z,16.33
2022-12-18T21:37:05.247Z,14.65
2022-12-18T21:39:32.937Z,16.35
2022-12-18T21:42:18.772Z,15.20
2022-12-18T21:44:49.294Z,16.17
2022-12-18T21:47:22.860Z,15.88
2022-12-18T21:52:19.011Z,14.38
2022-12-18T21:54:46.204Z,15.30
2022-12-18T21:57:13.663Z,16.73
2022-12-18T21:59:43.803Z,15.40
2022-12-18T22:02:20.379Z,17.23
2022-12-18T22:04:47.979Z,17.73
2022-12-18T22:07:16.805Z,17.83
2022-12-18T22:09:43.996Z,15.90
2022-12-18T22:12:13.287Z,17.58
2022-12-18T22:14:40.668Z,17.02
2022-12-18T22:17:12.041Z,18.15
2022-12-18T22:19:43.072Z,17.33
2022-12-18T22:22:10.520Z,17.50
2022-12-18T22:24:37.789Z,16.40
2022-12-18T22:27:04.922Z,17.88
2022-12-18T22:29:50.934Z,18.50
2022-12-18T22:32:25.595Z,16.63
2022-12-18T22:35:05.302Z,16.45
2022-12-18T22:37:37.076Z,17.58
2022-12-18T22:40:06.209Z,17.33
2022-12-18T22:42:34.625Z,17.63
2022-12-18T22:45:02.001Z,18.88
2022-12-18T22:47:30.319Z,18.58
2022-12-18T22:49:58.516Z,17.58
2022-12-18T22:52:26.083Z,17.63
2022-12-18T22:54:54.241Z,18.42
2022-12-18T22:57:23.208Z,17.77
2022-12-18T22:59:51.320Z,19.27
2022-12-18T23:02:19.748Z,19.67
2022-12-18T23:04:47.954Z,18.20
2022-12-18T23:07:16.599Z,18.42
2022-12-18T23:09:44.256Z,18.88
2022-12-18T23:12:16.294Z,18.05
2022-12-18T23:14:43.549Z,17.23
2022-12-18T23:17:10.857Z,17.70
2022-12-18T23:19:38.148Z,18.60
2022-12-18T23:22:11.418Z,17.92
2022-12-18T23:24:39.063Z,18.85
2022-12-18T23:27:09.094Z,18.23
2022-12-18T23:29:39.723Z,17.20
2022-12-18T23:32:07.184Z,17.02
2022-12-18T23:34:34.458Z,18.45
2022-12-18T23:37:03.914Z,18.48
2022-12-18T23:39:31.422Z,18.42
2022-12-18T23:41:59.511Z,17.45
2022-12-18T23:44:27.305Z,19.10
2022-12-18T23:46:55.075Z,18.02
2022-12-18T23:49:22.752Z,17.08
2022-12-18T23:51:50.062Z,19.58
2022-12-18T23:54:17.600Z,17.88
2022-12-18T23:56:50.093Z,17.95
2022-12-18T23:59:20.296Z,16.33
